»·PEaware :: SKY36 KORS-KEAT

SKY36 :: KORS-KEAT

FLIGHT INFORMATION

Flight Status: Arrived
Operator:
Sky High Charters
More flights by this operator :: More flights under this callsign
Pilot: Hendrik S. (17810)
Aircraft: Unknown
(P28U)
More flights by this aircraft type
Origin: KORS Orcas I
United States
Destination: KEAT Pangborn Meml
United States
More flights between these airports :: More routes between these airports
Route: FEGBA2 FEGBA SEA V2 ELN V25 EAT
File this flight plan on PilotEdge
Remarks: +CW / SCENARIO 3 leg 3
Altitude:
(Current/Filed)
9,000ft
Speed:
(Current/Filed)
140kts
Departed: 02-Mar-19 07:07 PM
Arrived: 02-Mar-19 08:50 PM
Distance/Time
Traveled:
134nm/1:43
Distance/Time
To Go:
Arrived

Flight Plot

Page will automatically refresh every two minutes.

Flight plan parsing failed; only flown route is shown


Map Options




Map Legend


Flown Route
Filed Route
Departure Airport
Arrival Airport
Navaid (VOR, NDB)
Fix

Horizontal Profiles

Position Reports

Time Latitude Longitude Heading Altitude Ground
Speed
02-Mar-19 18:46 48.705079 -122.909651 2 36ft 0kts
02-Mar-19 18:47 48.705079 -122.909651 2 36ft 0kts
02-Mar-19 18:48 48.705079 -122.909651 2 36ft 0kts
02-Mar-19 18:49 48.705079 -122.909651 2 36ft 0kts
02-Mar-19 18:50 48.705079 -122.909651 2 36ft 0kts
02-Mar-19 18:51 48.705079 -122.909651 2 36ft 0kts
02-Mar-19 18:52 48.705079 -122.909651 2 36ft 0kts
02-Mar-19 18:52 48.705079 -122.909651 2 36ft 0kts
02-Mar-19 18:54 48.705079 -122.909651 2 36ft 0kts
02-Mar-19 18:55 48.705079 -122.909651 2 36ft 0kts
02-Mar-19 18:56 48.705079 -122.909651 2 36ft 0kts
02-Mar-19 18:56 48.705079 -122.909651 2 36ft 0kts
02-Mar-19 18:57 48.705079 -122.909651 2 36ft 0kts
02-Mar-19 18:59 48.706782 -122.910001 356 32ft 6kts
02-Mar-19 18:59 48.710058 -122.910003 2 23ft 15kts
02-Mar-19 19:00 48.711990 -122.910010 337 19ft 0kts
02-Mar-19 19:01 48.711990 -122.910010 337 19ft 0kts
02-Mar-19 19:02 48.711990 -122.910010 337 19ft 0kts
02-Mar-19 19:03 48.711990 -122.910010 337 19ft 0kts
02-Mar-19 19:04 48.712003 -122.910018 338 19ft 0kts
02-Mar-19 19:05 48.711838 -122.910583 179 18ft 0kts
02-Mar-19 19:06 48.693263 -122.910426 180 565ft 85kts
02-Mar-19 19:07 48.669615 -122.909604 175 1565ft 85kts
02-Mar-19 19:08 48.645761 -122.909345 179 2502ft 86kts
02-Mar-19 19:09 48.619321 -122.910709 181 3362ft 97kts
02-Mar-19 19:10 48.590929 -122.911610 182 4185ft 104kts
02-Mar-19 19:11 48.561652 -122.914462 178 4998ft 105kts
02-Mar-19 19:12 48.531909 -122.913382 163 5786ft 108kts
02-Mar-19 19:13 48.503488 -122.897412 159 6524ft 110kts
02-Mar-19 19:14 48.474786 -122.881322 159 7239ft 111kts
02-Mar-19 19:15 48.445781 -122.865042 159 7884ft 111kts
02-Mar-19 19:16 48.416577 -122.848471 158 8478ft 112kts
02-Mar-19 19:17 48.386894 -122.831676 159 8980ft 119kts
02-Mar-19 19:18 48.352564 -122.812508 159 9003ft 138kts
02-Mar-19 19:19 48.315974 -122.792090 159 9002ft 140kts
02-Mar-19 19:20 48.279292 -122.771637 159 9002ft 140kts
02-Mar-19 19:21 48.242585 -122.751202 159 9002ft 140kts
02-Mar-19 19:22 48.205795 -122.730779 159 9002ft 140kts
02-Mar-19 19:23 48.169161 -122.710452 159 9002ft 137kts
02-Mar-19 19:24 48.133234 -122.690529 159 9002ft 137kts
02-Mar-19 19:25 48.097283 -122.670628 159 9002ft 137kts
02-Mar-19 19:26 48.061374 -122.650779 159 9002ft 137kts
02-Mar-19 19:27 48.025386 -122.630917 159 9002ft 137kts
02-Mar-19 19:28 47.989423 -122.611098 159 9002ft 137kts
02-Mar-19 19:29 47.953366 -122.591257 159 9002ft 137kts
02-Mar-19 19:30 47.917435 -122.571515 159 9002ft 137kts
02-Mar-19 19:31 47.881561 -122.551835 159 9002ft 137kts
02-Mar-19 19:32 47.845662 -122.532170 159 9002ft 137kts
02-Mar-19 19:33 47.809626 -122.512458 159 9002ft 137kts
02-Mar-19 19:34 47.773606 -122.492785 159 9002ft 137kts
02-Mar-19 19:35 47.737588 -122.473141 159 9002ft 137kts
02-Mar-19 19:36 47.701579 -122.453532 159 9002ft 137kts
02-Mar-19 19:37 47.665512 -122.433919 159 9002ft 137kts
02-Mar-19 19:38 47.629675 -122.414460 159 9002ft 137kts
02-Mar-19 19:39 47.593625 -122.394914 159 9002ft 137kts
02-Mar-19 19:40 47.557711 -122.375471 159 9002ft 137kts
02-Mar-19 19:41 47.521661 -122.355982 159 9002ft 137kts
02-Mar-19 19:42 47.486128 -122.336801 160 9002ft 137kts
02-Mar-19 19:43 47.450172 -122.317419 160 9002ft 137kts
02-Mar-19 19:44 47.429142 -122.273646 110 9002ft 137kts
02-Mar-19 19:45 47.416765 -122.219954 108 9002ft 137kts
02-Mar-19 19:46 47.405072 -122.166045 107 9002ft 137kts
02-Mar-19 19:47 47.393514 -122.112191 107 9002ft 137kts
02-Mar-19 19:48 47.381929 -122.058212 107 9002ft 137kts
02-Mar-19 19:49 47.370326 -122.004263 107 9002ft 137kts
02-Mar-19 19:50 47.358697 -121.950327 107 9002ft 137kts
02-Mar-19 19:51 47.347032 -121.896365 107 9002ft 137kts
02-Mar-19 19:52 47.335392 -121.842655 107 9002ft 137kts
02-Mar-19 19:53 47.323664 -121.788683 107 9002ft 137kts
02-Mar-19 19:54 47.311915 -121.734753 107 9002ft 137kts
02-Mar-19 19:55 47.300176 -121.681011 107 9002ft 137kts
02-Mar-19 19:56 47.288361 -121.627056 107 9002ft 137kts
02-Mar-19 19:57 47.276576 -121.573379 107 9002ft 137kts
02-Mar-19 19:58 47.264743 -121.519622 107 9002ft 137kts
02-Mar-19 19:59 47.252851 -121.465740 107 9002ft 137kts
02-Mar-19 20:00 47.240938 -121.411905 107 9002ft 137kts
02-Mar-19 20:01 47.229056 -121.358350 107 9002ft 137kts
02-Mar-19 20:02 47.217202 -121.305059 108 9002ft 137kts
02-Mar-19 20:03 47.205216 -121.251312 108 9002ft 137kts
02-Mar-19 20:04 47.193243 -121.197756 108 9002ft 137kts
02-Mar-19 20:05 47.181215 -121.144090 108 9002ft 137kts
02-Mar-19 20:06 47.169151 -121.090399 108 9002ft 137kts
02-Mar-19 20:07 47.157061 -121.036728 108 9002ft 137kts
02-Mar-19 20:08 47.144962 -120.983156 108 9002ft 137kts
02-Mar-19 20:09 47.138513 -120.954655 108 9002ft 137kts
02-Mar-19 20:10 47.126418 -120.901101 106 9002ft 137kts
02-Mar-19 20:11 47.114923 -120.847287 107 9002ft 137kts
02-Mar-19 20:12 47.102871 -120.793726 108 9002ft 137kts
02-Mar-19 20:13 47.090343 -120.740527 108 9002ft 137kts
02-Mar-19 20:14 47.077845 -120.687112 108 9002ft 137kts
02-Mar-19 20:15 47.065553 -120.633645 108 9002ft 137kts
02-Mar-19 20:16 47.053283 -120.580331 108 9002ft 137kts
02-Mar-19 20:17 47.040998 -120.527085 108 9002ft 137kts
02-Mar-19 20:18 47.029372 -120.473557 88 8995ft 138kts
02-Mar-19 20:19 47.057337 -120.438462 24 9002ft 137kts
02-Mar-19 20:20 47.092310 -120.415158 23 9002ft 137kts
02-Mar-19 20:21 47.127328 -120.392157 23 9002ft 137kts
02-Mar-19 20:22 47.162393 -120.369095 23 9002ft 137kts
02-Mar-19 20:23 47.197515 -120.345962 24 9002ft 137kts
02-Mar-19 20:24 47.232627 -120.322800 24 9002ft 137kts
02-Mar-19 20:25 47.267722 -120.299618 24 9002ft 137kts
02-Mar-19 20:26 47.302703 -120.276258 24 9002ft 137kts
02-Mar-19 20:27 47.337972 -120.252743 24 9002ft 137kts
02-Mar-19 20:28 47.373002 -120.229501 24 9002ft 137kts
02-Mar-19 20:29 47.409028 -120.209542 18 9002ft 137kts
02-Mar-19 20:30 47.411225 -120.160079 116 9001ft 136kts
02-Mar-19 20:31 47.401076 -120.106887 92 8685ft 139kts
02-Mar-19 20:32 47.400766 -120.048320 89 8272ft 142kts
02-Mar-19 20:33 47.400892 -119.989015 89 7615ft 148kts
02-Mar-19 20:34 47.394383 -119.929471 112 6815ft 145kts
02-Mar-19 20:35 47.371475 -119.881557 137 5897ft 144kts
02-Mar-19 20:36 47.337475 -119.853533 163 5112ft 140kts
02-Mar-19 20:37 47.298771 -119.849608 188 4997ft 141kts
02-Mar-19 20:38 47.263598 -119.869524 213 4984ft 135kts
02-Mar-19 20:39 47.238747 -119.912474 245 4360ft 144kts
02-Mar-19 20:40 47.232740 -119.967865 276 4023ft 132kts
02-Mar-19 20:41 47.245885 -120.017416 305 3809ft 130kts
02-Mar-19 20:42 47.272233 -120.049689 332 3859ft 122kts
02-Mar-19 20:43 47.302514 -120.072889 333 3670ft 117kts
02-Mar-19 20:44 47.331759 -120.092622 335 3100ft 114kts
02-Mar-19 20:46 47.357276 -120.113821 326 2832ft 99kts
02-Mar-19 20:47 47.366401 -120.154219 286 2261ft 99kts
02-Mar-19 20:48 47.384437 -120.185935 316 1568ft 72kts
02-Mar-19 20:49 47.399423 -120.207832 309 1252ft 50kts
02-Mar-19 20:50 47.402912 -120.211152 42 1252ft 7kts
02-Mar-19 20:51 47.401476 -120.206907 132 1252ft 0kts
02-Mar-19 20:52 47.401476 -120.206907 132 1252ft 0kts

Navigation Log

Ident Type
Flight plan parsing failed, navigation log unavailable